Time;durP1;ratioP1;P1;durP2;ratioP2;P2;SDS_P1;SDS_P2;PMS_P1;PMS_P2;Temp;Humidity;BMP_temperature;BMP_pressure;BME280_temperature;BME280_humidity;BME280_pressure;Samples;Min_cycle;Max_cycle;Signal;HPM_P1;HPM_P2
2022/10/26 00:02:17;;;;;;;21.77;8.77;;;;;;;;;;6245796;23;20020;-73
2022/10/26 00:04:43;;;;;;;13.68;7.50;;;;;;;;;;6218683;23;20016;-72
2022/10/26 00:07:09;;;;;;;20.25;7.85;;;;;;;;;;6218764;23;20020;-72
2022/10/26 00:09:35;;;;;;;13.18;7.60;;;;;;;;;;6193664;23;20323;-73
2022/10/26 00:12:01;;;;;;;17.52;7.57;;;;;;;;;;6218795;23;20016;-72
2022/10/26 00:14:27;;;;;;;15.70;7.72;;;;;;;;;;6218586;23;20348;-72
2022/10/26 00:16:53;;;;;;;17.63;7.68;;;;;;;;;;6218710;23;20012;-72
2022/10/26 00:19:20;;;;;;;15.57;8.40;;;;;;;;;;6218583;23;20020;-72
2022/10/26 00:21:46;;;;;;;13.93;8.02;;;;;;;;;;6218735;23;20045;-72
2022/10/26 00:24:12;;;;;;;12.32;6.93;;;;;;;;;;6218735;23;20020;-72
2022/10/26 00:26:38;;;;;;;11.10;7.90;;;;;;;;;;6218668;23;20031;-72
2022/10/26 00:29:05;;;;;;;13.57;7.15;;;;;;;;;;6218880;23;20163;-72
2022/10/26 00:31:31;;;;;;;14.90;7.43;;;;;;;;;;6220370;23;20024;-72
2022/10/26 00:33:57;;;;;;;10.38;6.85;;;;;;;;;;6220523;23;20083;-72
2022/10/26 00:36:23;;;;;;;11.20;7.55;;;;;;;;;;6220417;23;20016;-72
2022/10/26 00:38:50;;;;;;;12.75;7.68;;;;;;;;;;6220414;23;20020;-72
2022/10/26 00:41:18;;;;;;;14.00;8.15;;;;;;;;;;6220349;23;20016;-72
2022/10/26 00:43:44;;;;;;;13.13;8.00;;;;;;;;;;6220462;23;20024;-72
2022/10/26 00:46:16;;;;;;;16.35;8.10;;;;;;;;;;6220189;23;20016;-72
2022/10/26 00:48:45;;;;;;;11.27;7.63;;;;;;;;;;6220284;23;20020;-71
2022/10/26 00:51:17;;;;;;;11.95;7.82;;;;;;;;;;6219916;23;20016;-72
2022/10/26 00:53:44;;;;;;;11.85;7.55;;;;;;;;;;6220433;23;20016;-72
2022/10/26 00:56:10;;;;;;;13.40;7.78;;;;;;;;;;6220118;23;20053;-72
2022/10/26 00:58:36;;;;;;;11.05;7.57;;;;;;;;;;6220334;23;20082;-72
2022/10/26 01:01:03;;;;;;;12.27;7.70;;;;;;;;;;6220050;23;20016;-72
2022/10/26 01:03:30;;;;;;;18.20;8.60;;;;;;;;;;6220226;23;20043;-72
2022/10/26 01:05:57;;;;;;;13.43;8.00;;;;;;;;;;6220371;23;20087;-72
2022/10/26 01:08:23;;;;;;;11.02;7.25;;;;;;;;;;6195267;23;20065;-72
2022/10/26 01:10:49;;;;;;;13.40;7.63;;;;;;;;;;6220029;23;20020;-72
2022/10/26 01:13:16;;;;;;;13.63;7.78;;;;;;;;;;6247260;23;20316;-72
2022/10/26 01:15:47;;;;;;;18.35;8.82;;;;;;;;;;6219990;23;20012;-72
2022/10/26 01:18:24;;;;;;;13.77;7.47;;;;;;;;;;6220267;23;20027;-72
2022/10/26 01:20:50;;;;;;;16.55;7.75;;;;;;;;;;6220127;23;20354;-72
2022/10/26 01:23:28;;;;;;;16.17;7.53;;;;;;;;;;6220234;23;20067;-72
2022/10/26 01:26:00;;;;;;;13.25;8.20;;;;;;;;;;6219777;23;20019;-72
2022/10/26 01:28:45;;;;;;;15.20;7.80;;;;;;;;;;6220194;23;20016;-72
2022/10/26 01:31:14;;;;;;;13.23;7.88;;;;;;;;;;6219884;23;20091;-72
2022/10/26 01:33:44;;;;;;;13.10;7.18;;;;;;;;;;6219959;23;20016;-72
2022/10/26 01:36:30;;;;;;;11.65;7.78;;;;;;;;;;6219782;23;20342;-73
2022/10/26 01:39:06;;;;;;;18.33;7.88;;;;;;;;;;6199675;23;20016;-72
2022/10/26 01:41:35;;;;;;;13.18;7.82;;;;;;;;;;6219193;23;20394;-72
2022/10/26 01:44:06;;;;;;;11.82;7.15;;;;;;;;;;6219884;23;20043;-72
2022/10/26 01:46:40;;;;;;;11.38;7.53;;;;;;;;;;6219711;23;20012;-72
2022/10/26 01:49:08;;;;;;;14.48;7.60;;;;;;;;;;6219638;23;20461;-72
2022/10/26 01:51:35;;;;;;;13.05;7.53;;;;;;;;;;6219575;23;20020;-72
2022/10/26 01:54:01;;;;;;;15.23;7.65;;;;;;;;;;6219618;23;20012;-72
2022/10/26 01:56:30;;;;;;;10.38;7.72;;;;;;;;;;6219877;23;20016;-72
2022/10/26 01:58:56;;;;;;;16.08;8.50;;;;;;;;;;6219920;23;20083;-72
2022/10/26 02:01:31;;;;;;;13.38;7.50;;;;;;;;;;6219819;23;20020;-72
2022/10/26 02:04:07;;;;;;;13.45;7.53;;;;;;;;;;6219496;23;20444;-72
2022/10/26 02:06:39;;;;;;;13.52;8.27;;;;;;;;;;6219659;23;20024;-72
2022/10/26 02:09:14;;;;;;;15.73;8.13;;;;;;;;;;6219696;23;20019;-72
2022/10/26 02:11:42;;;;;;;10.77;7.25;;;;;;;;;;6219376;23;20039;-72
2022/10/26 02:14:08;;;;;;;14.18;8.18;;;;;;;;;;6219560;23;20078;-72
2022/10/26 02:16:40;;;;;;;14.68;7.35;;;;;;;;;;6219373;23;20012;-72
2022/10/26 02:19:13;;;;;;;16.45;8.55;;;;;;;;;;6219601;23;20016;-72
2022/10/26 02:21:43;;;;;;;13.85;8.27;;;;;;;;;;6219552;23;20027;-72
2022/10/26 02:24:12;;;;;;;15.23;8.55;;;;;;;;;;6219415;23;20479;-72
2022/10/26 02:26:40;;;;;;;15.65;8.25;;;;;;;;;;6219298;23;20442;-72
2022/10/26 02:29:08;;;;;;;13.90;7.88;;;;;;;;;;6219446;23;20442;-72
2022/10/26 02:31:34;;;;;;;11.02;8.20;;;;;;;;;;6219199;23;20019;-72
2022/10/26 02:34:04;;;;;;;14.63;8.95;;;;;;;;;;6219334;23;20023;-72
2022/10/26 02:36:31;;;;;;;11.35;8.63;;;;;;;;;;6219458;23;20012;-72
2022/10/26 02:38:59;;;;;;;13.48;8.10;;;;;;;;;;6219369;23;20025;-72
2022/10/26 02:41:26;;;;;;;17.27;8.43;;;;;;;;;;6219311;23;20020;-72
2022/10/26 02:43:53;;;;;;;11.70;7.50;;;;;;;;;;6219257;23;20016;-72
2022/10/26 02:46:21;;;;;;;15.32;8.52;;;;;;;;;;6219355;23;20456;-72
2022/10/26 02:48:47;;;;;;;22.05;8.63;;;;;;;;;;6219196;23;20106;-72
2022/10/26 02:51:32;;;;;;;11.90;7.65;;;;;;;;;;6219293;23;20020;-72
2022/10/26 02:54:05;;;;;;;13.10;7.63;;;;;;;;;;6219113;23;20091;-72
2022/10/26 02:56:39;;;;;;;11.98;8.40;;;;;;;;;;6219291;23;20087;-72
2022/10/26 02:59:07;;;;;;;16.08;8.05;;;;;;;;;;6219232;23;20012;-72
2022/10/26 03:01:34;;;;;;;11.57;7.80;;;;;;;;;;6219130;23;20019;-72
2022/10/26 03:04:00;;;;;;;15.43;7.78;;;;;;;;;;6218971;23;20012;-72
2022/10/26 03:06:26;;;;;;;16.02;8.68;;;;;;;;;;6245887;23;20087;-73
2022/10/26 03:08:52;;;;;;;16.13;8.13;;;;;;;;;;6218951;23;20012;-72
2022/10/26 03:11:18;;;;;;;11.48;7.75;;;;;;;;;;6219245;23;20083;-72
2022/10/26 03:13:44;;;;;;;14.55;8.23;;;;;;;;;;6219007;23;20459;-72
2022/10/26 03:16:11;;;;;;;18.05;8.82;;;;;;;;;;6219249;23;20043;-72
2022/10/26 03:18:37;;;;;;;15.55;7.90;;;;;;;;;;6219067;23;20012;-72
2022/10/26 03:21:03;;;;;;;15.93;7.95;;;;;;;;;;6219294;23;20066;-72
2022/10/26 03:23:29;;;;;;;12.90;8.18;;;;;;;;;;6218930;23;20023;-72
2022/10/26 03:25:59;;;;;;;14.98;9.07;;;;;;;;;;6219053;23;20091;-72
2022/10/26 03:28:25;;;;;;;17.85;10.05;;;;;;;;;;6218905;23;20016;-72
2022/10/26 03:30:52;;;;;;;14.48;8.70;;;;;;;;;;6218963;23;20094;-72
2022/10/26 03:33:18;;;;;;;15.40;9.23;;;;;;;;;;6218863;23;20008;-72
2022/10/26 03:35:44;;;;;;;21.45;8.52;;;;;;;;;;6219022;23;20019;-72
2022/10/26 03:38:10;;;;;;;16.45;8.38;;;;;;;;;;6245865;23;20018;-72
2022/10/26 03:40:36;;;;;;;14.07;8.68;;;;;;;;;;6219186;23;20434;-73
2022/10/26 03:43:02;;;;;;;16.92;9.38;;;;;;;;;;6218986;23;20070;-72
2022/10/26 03:45:28;;;;;;;14.38;8.75;;;;;;;;;;6219032;23;20062;-73
2022/10/26 03:47:54;;;;;;;16.73;8.98;;;;;;;;;;6245591;23;20020;-72
2022/10/26 03:50:21;;;;;;;17.33;8.93;;;;;;;;;;6218940;23;20027;-72
2022/10/26 03:52:48;;;;;;;17.60;9.82;;;;;;;;;;6218717;23;20055;-72
2022/10/26 03:55:14;;;;;;;14.90;9.93;;;;;;;;;;6218885;23;20451;-72
2022/10/26 03:57:41;;;;;;;15.27;9.45;;;;;;;;;;6219013;23;20016;-72
2022/10/26 04:00:08;;;;;;;17.85;10.93;;;;;;;;;;6219029;23;20016;-73
2022/10/26 04:02:34;;;;;;;16.63;9.48;;;;;;;;;;6218854;23;20024;-72
2022/10/26 04:05:00;;;;;;;17.42;11.23;;;;;;;;;;6195076;23;20027;-72
2022/10/26 04:07:26;;;;;;;16.23;9.88;;;;;;;;;;6221041;23;20020;-72
2022/10/26 04:09:52;;;;;;;16.95;9.75;;;;;;;;;;6220878;23;20020;-72
2022/10/26 04:12:18;;;;;;;18.38;10.20;;;;;;;;;;6196088;23;20020;-72
2022/10/26 04:14:44;;;;;;;17.08;9.48;;;;;;;;;;6221143;23;20366;-72
2022/10/26 04:17:10;;;;;;;16.40;10.43;;;;;;;;;;6220982;23;20467;-71
2022/10/26 04:19:36;;;;;;;16.48;9.98;;;;;;;;;;6221451;23;20012;-72
2022/10/26 04:22:02;;;;;;;15.77;10.23;;;;;;;;;;6221303;23;20016;-72
2022/10/26 04:24:28;;;;;;;18.85;10.60;;;;;;;;;;6196302;23;20089;-72
2022/10/26 04:26:54;;;;;;;20.15;10.38;;;;;;;;;;6220701;23;20050;-73
2022/10/26 04:29:20;;;;;;;19.73;11.27;;;;;;;;;;6195746;23;20084;-73
2022/10/26 04:31:46;;;;;;;18.63;11.60;;;;;;;;;;6220639;23;20074;-72
2022/10/26 04:34:12;;;;;;;18.77;10.15;;;;;;;;;;6195299;23;20016;-73
2022/10/26 04:36:38;;;;;;;18.98;11.48;;;;;;;;;;6220724;23;20043;-72
2022/10/26 04:39:04;;;;;;;17.42;11.48;;;;;;;;;;6195733;23;20038;-73
2022/10/26 04:41:30;;;;;;;21.02;11.98;;;;;;;;;;6220622;23;20016;-72
2022/10/26 04:43:57;;;;;;;29.10;13.13;;;;;;;;;;6220143;23;20016;-72
2022/10/26 04:46:23;;;;;;;19.10;11.95;;;;;;;;;;6220638;23;20076;-72
2022/10/26 04:48:49;;;;;;;21.10;12.05;;;;;;;;;;6196557;23;20025;-72
2022/10/26 04:51:15;;;;;;;21.77;13.23;;;;;;;;;;6185230;23;20028;-72
2022/10/26 04:53:41;;;;;;;20.00;12.02;;;;;;;;;;6185113;23;20072;-72
2022/10/26 04:56:08;;;;;;;17.58;11.77;;;;;;;;;;6184969;23;20111;-72
2022/10/26 04:58:34;;;;;;;19.60;12.45;;;;;;;;;;6160241;23;20023;-72
2022/10/26 05:01:01;;;;;;;24.80;14.50;;;;;;;;;;6160310;23;20091;-72
2022/10/26 05:03:28;;;;;;;19.30;12.57;;;;;;;;;;6185040;23;20020;-72
2022/10/26 05:05:54;;;;;;;25.48;13.52;;;;;;;;;;6184954;23;20409;-72
2022/10/26 05:08:20;;;;;;;18.95;12.20;;;;;;;;;;6184964;23;20087;-72
2022/10/26 05:10:49;;;;;;;20.63;12.38;;;;;;;;;;6184719;23;20016;-72
2022/10/26 05:13:15;;;;;;;24.73;12.32;;;;;;;;;;6185141;23;20020;-72
2022/10/26 05:15:41;;;;;;;24.17;12.93;;;;;;;;;;6184929;23;20017;-72
2022/10/26 05:18:08;;;;;;;20.27;13.00;;;;;;;;;;6185003;23;20055;-72
2022/10/26 05:20:35;;;;;;;25.50;13.77;;;;;;;;;;6160040;23;20091;-72
2022/10/26 05:23:02;;;;;;;19.38;13.52;;;;;;;;;;6185006;23;20052;-72
2022/10/26 05:25:29;;;;;;;20.23;13.57;;;;;;;;;;6159978;23;20024;-72
2022/10/26 05:27:59;;;;;;;24.50;13.32;;;;;;;;;;6186597;23;20009;-72
2022/10/26 05:30:26;;;;;;;23.60;13.50;;;;;;;;;;6184797;23;20492;-70
2022/10/26 05:33:01;;;;;;;20.83;12.77;;;;;;;;;;6184786;23;20013;-70
2022/10/26 05:35:27;;;;;;;23.88;13.15;;;;;;;;;;6185145;23;20009;-70
2022/10/26 05:37:53;;;;;;;22.10;13.75;;;;;;;;;;6186354;23;20443;-70
2022/10/26 05:40:19;;;;;;;24.40;13.77;;;;;;;;;;6184645;23;20383;-70
2022/10/26 05:42:45;;;;;;;21.35;12.82;;;;;;;;;;6184793;23;20072;-70
2022/10/26 05:45:12;;;;;;;23.58;13.23;;;;;;;;;;6160030;23;20071;-70
2022/10/26 05:47:41;;;;;;;20.10;13.25;;;;;;;;;;6167384;23;20343;-70
2022/10/26 05:50:08;;;;;;;21.65;13.13;;;;;;;;;;6219653;23;20354;-70
2022/10/26 05:52:48;;;;;;;22.58;13.45;;;;;;;;;;6194732;23;20111;-70
2022/10/26 05:55:15;;;;;;;25.67;12.90;;;;;;;;;;6219634;23;20016;-70
2022/10/26 05:57:42;;;;;;;22.05;12.27;;;;;;;;;;6246631;23;20018;-70
2022/10/26 06:00:09;;;;;;;23.42;12.80;;;;;;;;;;6219505;23;20012;-70
2022/10/26 06:02:37;;;;;;;25.38;13.32;;;;;;;;;;6219372;23;20062;-70
2022/10/26 06:05:04;;;;;;;28.70;13.65;;;;;;;;;;6219220;23;20012;-70
2022/10/26 06:07:32;;;;;;;24.55;12.68;;;;;;;;;;6219581;23;20117;-72
2022/10/26 06:09:58;;;;;;;19.30;11.77;;;;;;;;;;6194375;23;20028;-72
2022/10/26 06:12:25;;;;;;;22.05;12.93;;;;;;;;;;6219577;23;20013;-72
2022/10/26 06:14:51;;;;;;;22.10;12.60;;;;;;;;;;6194737;23;20063;-72
2022/10/26 06:17:33;;;;;;;17.17;11.70;;;;;;;;;;6219301;23;20375;-72
2022/10/26 06:20:17;;;;;;;21.88;12.68;;;;;;;;;;6219409;23;20012;-72
2022/10/26 06:23:00;;;;;;;18.75;12.32;;;;;;;;;;6219227;23;20087;-72
2022/10/26 06:25:49;;;;;;;21.35;12.18;;;;;;;;;;6194324;23;20051;-72
2022/10/26 06:28:27;;;;;;;20.98;12.25;;;;;;;;;;6218542;23;20390;-72
2022/10/26 06:30:53;;;;;;;19.25;11.27;;;;;;;;;;6194055;23;20013;-72
2022/10/26 06:33:19;;;;;;;24.58;13.82;;;;;;;;;;6219379;23;20023;-72
2022/10/26 06:35:52;;;;;;;22.08;11.93;;;;;;;;;;6193908;23;20016;-72
2022/10/26 06:38:19;;;;;;;23.00;13.82;;;;;;;;;;6219398;23;20012;-72
2022/10/26 06:40:47;;;;;;;21.48;12.05;;;;;;;;;;6218177;23;20016;-72
2022/10/26 06:43:22;;;;;;;20.35;11.93;;;;;;;;;;6219157;23;20343;-72
2022/10/26 06:45:50;;;;;;;19.42;11.57;;;;;;;;;;6218970;23;20082;-72
2022/10/26 06:48:19;;;;;;;23.80;12.07;;;;;;;;;;6218884;23;20451;-72
2022/10/26 06:50:52;;;;;;;21.63;11.95;;;;;;;;;;6218891;23;20517;-72
2022/10/26 06:53:24;;;;;;;19.67;11.88;;;;;;;;;;6194217;23;20015;-72
2022/10/26 06:55:50;;;;;;;20.90;12.50;;;;;;;;;;6219159;23;20012;-72
2022/10/26 06:58:20;;;;;;;18.02;11.63;;;;;;;;;;6219169;23;20016;-72
2022/10/26 07:00:48;;;;;;;18.23;11.65;;;;;;;;;;6219102;23;20018;-72
2022/10/26 07:03:14;;;;;;;21.23;11.18;;;;;;;;;;6219236;23;20473;-72
2022/10/26 07:05:40;;;;;;;20.38;11.55;;;;;;;;;;6219143;23;20089;-72
2022/10/26 07:08:06;;;;;;;21.27;11.88;;;;;;;;;;6245962;22;20020;-72
2022/10/26 07:10:34;;;;;;;20.95;12.30;;;;;;;;;;6219178;23;20016;-72
2022/10/26 07:13:00;;;;;;;24.35;11.90;;;;;;;;;;6194194;23;20016;-72
2022/10/26 07:15:26;;;;;;;19.95;12.07;;;;;;;;;;6245074;23;20009;-72
2022/10/26 07:17:52;;;;;;;20.73;11.43;;;;;;;;;;6219074;23;20012;-72
2022/10/26 07:20:19;;;;;;;17.05;10.75;;;;;;;;;;6218674;23;20074;-72
2022/10/26 07:22:50;;;;;;;22.48;11.73;;;;;;;;;;6218670;23;20445;-72
2022/10/26 07:25:16;;;;;;;17.75;11.00;;;;;;;;;;6193544;23;20074;-72
2022/10/26 07:27:42;;;;;;;21.42;11.68;;;;;;;;;;6218637;23;20016;-72
2022/10/26 07:30:09;;;;;;;27.20;12.50;;;;;;;;;;6218798;23;20020;-72
2022/10/26 07:32:35;;;;;;;19.40;10.85;;;;;;;;;;6218295;23;20016;-72
2022/10/26 07:35:01;;;;;;;20.58;11.10;;;;;;;;;;6217997;23;20023;-72
2022/10/26 07:37:27;;;;;;;17.10;10.95;;;;;;;;;;6218403;23;20016;-72
2022/10/26 07:39:53;;;;;;;17.98;11.07;;;;;;;;;;6219874;23;20016;-71
2022/10/26 07:42:19;;;;;;;20.25;11.98;;;;;;;;;;6220949;23;20019;-72
2022/10/26 07:44:46;;;;;;;18.42;11.80;;;;;;;;;;6247862;23;20054;-72
2022/10/26 07:47:12;;;;;;;18.25;10.88;;;;;;;;;;6220988;23;20012;-71
2022/10/26 07:49:38;;;;;;;19.05;11.02;;;;;;;;;;6220887;23;20052;-72
2022/10/26 07:52:04;;;;;;;23.73;11.27;;;;;;;;;;6220919;23;20454;-72
2022/10/26 07:54:31;;;;;;;22.33;10.73;;;;;;;;;;6221015;23;20020;-71
2022/10/26 07:56:57;;;;;;;14.85;10.55;;;;;;;;;;6220873;23;20016;-71
2022/10/26 07:59:23;;;;;;;20.67;10.35;;;;;;;;;;6220988;23;20084;-71
2022/10/26 08:01:49;;;;;;;17.17;11.10;;;;;;;;;;6247731;23;20027;-71
2022/10/26 08:04:15;;;;;;;21.85;10.32;;;;;;;;;;6220808;23;20018;-71
2022/10/26 08:06:41;;;;;;;16.88;10.27;;;;;;;;;;6220762;23;20022;-72
2022/10/26 08:09:08;;;;;;;17.13;9.80;;;;;;;;;;6220184;23;20450;-72
2022/10/26 08:11:35;;;;;;;17.08;9.27;;;;;;;;;;6220339;23;20055;-71
2022/10/26 08:14:02;;;;;;;14.88;9.65;;;;;;;;;;6220649;23;20008;-72
2022/10/26 08:16:28;;;;;;;15.98;9.48;;;;;;;;;;6220538;23;20019;-72
2022/10/26 08:19:00;;;;;;;14.82;9.52;;;;;;;;;;6196389;23;20087;-72
2022/10/26 08:21:26;;;;;;;14.35;8.52;;;;;;;;;;6219867;23;20027;-72
2022/10/26 08:23:52;;;;;;;11.98;8.85;;;;;;;;;;6220599;23;20065;-72
2022/10/26 08:26:19;;;;;;;15.55;8.50;;;;;;;;;;6220720;23;20023;-72
2022/10/26 08:28:48;;;;;;;15.00;9.18;;;;;;;;;;6220770;23;20411;-72
2022/10/26 08:31:14;;;;;;;13.30;8.80;;;;;;;;;;6247318;23;20099;-72
2022/10/26 08:33:40;;;;;;;14.93;8.77;;;;;;;;;;6220849;23;20020;-73
2022/10/26 08:36:06;;;;;;;13.93;8.23;;;;;;;;;;6220486;23;20063;-72
2022/10/26 08:38:35;;;;;;;19.33;9.30;;;;;;;;;;6220467;23;20009;-72
2022/10/26 08:41:07;;;;;;;16.08;8.63;;;;;;;;;;6220463;23;20016;-72
2022/10/26 08:43:38;;;;;;;17.55;7.80;;;;;;;;;;6220415;23;20050;-72
2022/10/26 08:46:10;;;;;;;14.02;8.60;;;;;;;;;;6220394;23;20020;-71
2022/10/26 08:48:38;;;;;;;16.50;8.20;;;;;;;;;;6220138;23;20070;-71
2022/10/26 08:51:10;;;;;;;13.90;7.70;;;;;;;;;;6219971;23;20027;-72
2022/10/26 08:53:39;;;;;;;18.17;8.73;;;;;;;;;;6220312;23;20087;-72
2022/10/26 08:56:14;;;;;;;14.13;8.45;;;;;;;;;;6220473;23;20043;-72
2022/10/26 08:58:42;;;;;;;11.07;7.50;;;;;;;;;;6220293;23;20020;-72
2022/10/26 09:01:09;;;;;;;13.77;8.27;;;;;;;;;;6220239;23;20346;-72
2022/10/26 09:03:35;;;;;;;15.77;7.47;;;;;;;;;;6220196;23;20012;-72
2022/10/26 09:06:04;;;;;;;15.07;8.07;;;;;;;;;;6195524;23;20016;-72
2022/10/26 09:08:30;;;;;;;12.13;6.95;;;;;;;;;;6220207;23;20350;-71
2022/10/26 09:11:07;;;;;;;13.55;6.30;;;;;;;;;;6220146;23;20022;-71
2022/10/26 09:13:39;;;;;;;11.25;6.25;;;;;;;;;;6220159;23;20019;-72
2022/10/26 09:16:08;;;;;;;9.77;6.07;;;;;;;;;;6220211;23;20016;-72
2022/10/26 09:18:46;;;;;;;10.43;5.78;;;;;;;;;;6220321;23;20335;-72
2022/10/26 09:21:15;;;;;;;14.52;6.60;;;;;;;;;;6220208;23;20012;-72
2022/10/26 09:23:44;;;;;;;10.43;5.43;;;;;;;;;;6220139;23;20016;-72
2022/10/26 09:26:13;;;;;;;13.93;6.20;;;;;;;;;;6221299;23;20086;-73
2022/10/26 09:28:40;;;;;;;11.40;5.78;;;;;;;;;;6221101;23;20012;-73
2022/10/26 09:31:08;;;;;;;11.63;6.20;;;;;;;;;;6220025;23;20055;-72
2022/10/26 09:33:36;;;;;;;8.95;5.60;;;;;;;;;;6220064;23;20016;-72
2022/10/26 09:36:06;;;;;;;10.00;6.25;;;;;;;;;;6220279;23;20012;-72
2022/10/26 09:38:50;;;;;;;13.45;6.18;;;;;;;;;;6247162;23;20023;-71
2022/10/26 09:41:23;;;;;;;14.07;5.53;;;;;;;;;;6220395;23;20016;-72
2022/10/26 09:43:56;;;;;;;10.63;5.43;;;;;;;;;;6219950;23;20018;-72
2022/10/26 09:46:34;;;;;;;11.02;5.45;;;;;;;;;;6220047;23;20062;-72
2022/10/26 09:49:09;;;;;;;9.73;5.35;;;;;;;;;;6193895;23;20029;-72
2022/10/26 09:51:37;;;;;;;8.07;4.93;;;;;;;;;;6186272;23;20025;-72
2022/10/26 09:54:05;;;;;;;10.52;5.82;;;;;;;;;;6184888;23;20012;-72
2022/10/26 09:56:31;;;;;;;9.02;5.00;;;;;;;;;;6183670;23;20016;-72
2022/10/26 09:59:03;;;;;;;9.15;4.45;;;;;;;;;;6159444;23;20020;-72
2022/10/26 10:01:31;;;;;;;10.50;5.00;;;;;;;;;;6183810;23;20021;-72
2022/10/26 10:04:10;;;;;;;6.85;4.43;;;;;;;;;;6183751;23;20023;-72
2022/10/26 10:06:36;;;;;;;10.32;4.93;;;;;;;;;;6184379;23;20020;-72
2022/10/26 10:09:09;;;;;;;12.15;5.00;;;;;;;;;;6184433;23;20020;-72
2022/10/26 10:11:39;;;;;;;9.82;4.80;;;;;;;;;;6184196;23;20106;-72
2022/10/26 10:14:09;;;;;;;8.75;4.60;;;;;;;;;;6184480;23;20016;-72
2022/10/26 10:16:35;;;;;;;7.63;4.40;;;;;;;;;;6184463;23;20424;-72
2022/10/26 10:19:01;;;;;;;9.60;4.82;;;;;;;;;;6184578;23;20035;-72
2022/10/26 10:21:38;;;;;;;8.52;4.47;;;;;;;;;;6184276;23;20028;-72
2022/10/26 10:24:22;;;;;;;7.68;4.53;;;;;;;;;;6184373;23;20092;-72
2022/10/26 10:27:00;;;;;;;8.63;3.97;;;;;;;;;;6184420;23;20044;-72
2022/10/26 10:29:27;;;;;;;9.02;3.95;;;;;;;;;;6184361;23;20021;-72
2022/10/26 10:32:00;;;;;;;12.02;4.85;;;;;;;;;;6184139;23;20021;-72
2022/10/26 10:34:27;;;;;;;8.77;4.80;;;;;;;;;;6184437;23;20017;-72
2022/10/26 10:36:53;;;;;;;8.98;4.80;;;;;;;;;;6184284;23;20012;-72
2022/10/26 10:39:27;;;;;;;12.55;4.55;;;;;;;;;;6184089;23;20451;-72
2022/10/26 10:41:53;;;;;;;10.18;4.70;;;;;;;;;;6184280;23;20013;-71
2022/10/26 10:44:26;;;;;;;9.10;4.38;;;;;;;;;;6183981;23;20431;-72
2022/10/26 10:46:59;;;;;;;11.68;5.35;;;;;;;;;;6183978;23;20025;-72
2022/10/26 10:49:26;;;;;;;6.63;3.97;;;;;;;;;;6183268;23;20037;-72
2022/10/26 10:51:53;;;;;;;8.18;4.32;;;;;;;;;;6183569;23;20489;-72
2022/10/26 10:54:24;;;;;;;8.10;4.35;;;;;;;;;;6183704;23;20425;-72
2022/10/26 10:56:51;;;;;;;9.43;4.47;;;;;;;;;;6184004;23;20167;-72
2022/10/26 10:59:17;;;;;;;7.80;4.30;;;;;;;;;;6183889;23;20013;-71
2022/10/26 11:01:48;;;;;;;9.77;4.00;;;;;;;;;;6183999;23;20020;-72
2022/10/26 11:04:32;;;;;;;7.05;3.88;;;;;;;;;;6183783;23;20020;-72
2022/10/26 11:06:59;;;;;;;7.20;3.67;;;;;;;;;;6183750;23;20013;-72
2022/10/26 11:09:27;;;;;;;9.38;4.20;;;;;;;;;;6183767;23;20024;-71
2022/10/26 11:11:55;;;;;;;8.55;3.50;;;;;;;;;;6159291;23;20017;-73
2022/10/26 11:14:41;;;;;;;8.25;4.35;;;;;;;;;;6183787;23;20013;-71
2022/10/26 11:17:13;;;;;;;7.38;3.42;;;;;;;;;;6183902;23;20055;-72
2022/10/26 11:19:42;;;;;;;10.75;4.28;;;;;;;;;;6185682;23;20340;-72
2022/10/26 11:22:13;;;;;;;8.50;3.38;;;;;;;;;;6183974;23;20020;-72
2022/10/26 11:24:49;;;;;;;8.70;3.58;;;;;;;;;;6185605;23;20021;-72
2022/10/26 11:27:25;;;;;;;13.35;4.00;;;;;;;;;;6183987;23;20092;-72
2022/10/26 11:29:56;;;;;;;8.98;4.50;;;;;;;;;;6183952;23;20478;-72
2022/10/26 11:32:23;;;;;;;8.35;3.90;;;;;;;;;;6183757;23;20096;-72
2022/10/26 11:34:53;;;;;;;7.57;3.80;;;;;;;;;;6183802;23;20067;-72
2022/10/26 11:37:22;;;;;;;10.35;3.75;;;;;;;;;;6183912;23;20020;-72
2022/10/26 11:40:00;;;;;;;7.03;3.88;;;;;;;;;;6159497;23;20091;-72
2022/10/26 11:42:35;;;;;;;8.80;3.80;;;;;;;;;;6185419;23;20481;-72
2022/10/26 11:45:11;;;;;;;8.82;3.60;;;;;;;;;;6184019;23;20448;-72
2022/10/26 11:47:41;;;;;;;13.45;3.97;;;;;;;;;;6166067;23;20028;-72
2022/10/26 11:50:24;;;;;;;14.23;4.30;;;17.60;99.90;;;;;;6219050;23;20027;-71
2022/10/26 11:53:10;;;;;;;10.05;3.80;;;;;;;;;;6218782;23;20091;-72
2022/10/26 11:55:37;;;;;;;12.25;4.07;;;;;;;;;;6218890;23;20009;-73
2022/10/26 11:58:03;;;;;;;10.57;4.20;;;;;;;;;;6218882;23;20012;-72
2022/10/26 12:00:30;;;;;;;9.02;4.10;;;;;;;;;;6218837;23;20334;-72
2022/10/26 12:03:00;;;;;;;10.68;5.05;;;;;;;;;;6218936;23;20399;-72
2022/10/26 12:05:35;;;;;;;12.43;4.10;;;;;;;;;;6218753;23;20091;-72
2022/10/26 12:08:13;;;;;;;9.45;4.20;;;;;;;;;;6218705;23;20052;-72
2022/10/26 12:10:41;;;;;;;10.43;4.97;;;;;;;;;;6218753;23;20024;-72
2022/10/26 12:13:19;;;;;;;8.68;4.60;;;;;;;;;;6218753;23;20427;-72
2022/10/26 12:15:52;;;;;;;7.97;3.65;;;;;;;;;;6218880;23;20087;-72
2022/10/26 12:18:30;;;;;;;12.48;4.25;;;;;;;;;;6245683;23;20016;-72
2022/10/26 12:21:01;;;;;;;9.63;4.07;;;;;;;;;;6218770;23;20012;-72
2022/10/26 12:23:27;;;;;;;11.32;4.55;;;;;;;;;;6218755;23;20038;-72
2022/10/26 12:26:13;;;;;;;8.90;4.47;;;;;;;;;;6219650;23;20095;-72
2022/10/26 12:28:40;;;;;;;10.27;4.55;;;;;;;;;;6220519;23;20087;-72
2022/10/26 12:31:36;;;;;;;9.52;4.55;;;17.80;99.90;;;;;;6195627;23;20023;-72
2022/10/26 12:34:03;;;;;;;11.07;4.78;;;;;;;;;;6244250;23;20129;-72
2022/10/26 12:36:53;;;;;;;8.80;3.90;;;17.80;99.90;;;;;;6220499;23;20066;-72
2022/10/26 12:39:27;;;;;;;11.48;4.35;;;;;;;;;;6220509;23;20020;-72
2022/10/26 12:42:05;;;;;;;10.55;4.55;;;;;;;;;;6220796;23;20338;-72
2022/10/26 12:44:33;;;;;;;9.50;4.60;;;;;;;;;;6220567;23;20393;-72
2022/10/26 12:46:59;;;;;;;11.52;4.53;;;;;;;;;;6220514;23;20020;-72
2022/10/26 12:49:44;;;;;;;10.57;5.10;;;;;;;;;;6220267;23;20027;-72
2022/10/26 12:52:21;;;;;;;11.43;4.95;;;;;;;;;;6220367;23;20012;-72
2022/10/26 12:55:05;;;;;;;7.72;4.45;;;;;;;;;;6220427;23;20012;-72
2022/10/26 12:57:37;;;;;;;10.93;4.72;;;;;;;;;;6220395;23;20016;-72
2022/10/26 13:00:05;;;;;;;10.35;4.80;;;;;;;;;;6220448;23;20023;-72
2022/10/26 13:02:50;;;;;;;9.25;4.60;;;;;;;;;;6220469;23;20024;-72
2022/10/26 13:05:19;;;;;;;8.90;4.80;;;;;;;;;;6220345;23;20119;-72
2022/10/26 13:07:45;;;;;;;14.85;4.70;;;;;;;;;;6220145;22;20462;-72
2022/10/26 13:10:11;;;;;;;13.77;4.85;;;;;;;;;;6220228;23;20023;-72
2022/10/26 13:12:45;;;;;;;15.45;5.57;;;;;;;;;;6220156;23;20016;-72
2022/10/26 13:15:19;;;;;;;12.63;5.10;;;;;;;;;;6220085;23;20018;-72
2022/10/26 13:17:53;;;;;;;10.32;4.65;;;;;;;;;;6247011;23;20504;-72
2022/10/26 13:20:19;;;;;;;16.50;5.40;;;;;;;;;;6220062;23;20012;-72
2022/10/26 13:22:47;;;;;;;11.18;5.45;;;;;;;;;;6219962;23;20023;-72
2022/10/26 13:25:18;;;;;;;10.70;5.25;;;;;;;;;;6247042;23;20077;-72
2022/10/26 13:27:57;;;;;;;13.27;5.20;;;;;;;;;;6220064;23;20366;-72
2022/10/26 13:30:43;;;;;;;10.30;5.13;;;17.40;99.90;;;;;;6219810;23;20465;-72
2022/10/26 13:33:23;;;;;;;10.90;5.43;;;;;;;;;;6219998;23;20035;-72
2022/10/26 13:35:51;;;;;;;9.95;5.20;;;;;;;;;;6220254;23;20062;-72
2022/10/26 13:38:21;;;;;;;11.68;4.97;;;17.70;99.90;;;;;;6219879;23;20012;-72
2022/10/26 13:40:47;;;;;;;12.65;4.93;;;;;;;;;;6247402;23;20016;-72
2022/10/26 13:43:20;;;;;;;10.88;4.78;;;;;;;;;;6246950;23;20052;-72
2022/10/26 13:45:49;;;;;;;8.05;4.60;;;;;;;;;;6219993;23;20011;-72
2022/10/26 13:48:23;;;;;;;10.30;4.90;;;;;;;;;;6219733;23;20020;-72
2022/10/26 13:50:51;;;;;;;12.43;4.57;;;;;;;;;;6219949;23;20389;-72
2022/10/26 13:53:38;;;;;;;9.15;4.38;;;18.30;99.90;;;;;;6219900;23;20023;-72
2022/10/26 13:56:17;;;;;;;8.90;4.10;;;;;;;;;;6219714;23;20012;-72
2022/10/26 13:58:49;;;;;;;13.15;4.60;;;;;;;;;;6219842;23;20012;-72
2022/10/26 14:01:20;;;;;;;12.40;4.60;;;;;;;;;;6219754;23;20446;-72
2022/10/26 14:03:48;;;;;;;13.43;4.82;;;;;;;;;;6219762;23;20012;-72
2022/10/26 14:06:21;;;;;;;10.77;4.88;;;;;;;;;;6219711;23;20016;-72
2022/10/26 14:08:48;;;;;;;12.27;3.72;;;;;;;;;;6219518;23;20022;-72
2022/10/26 14:11:17;;;;;;;13.40;4.60;;;;;;;;;;6219618;23;20066;-72
2022/10/26 14:13:43;;;;;;;9.60;4.05;;;;;;;;;;6219735;23;20039;-72
2022/10/26 14:16:10;;;;;;;9.80;3.95;;;;;;;;;;6219744;23;20016;-72
2022/10/26 14:18:36;;;;;;;11.30;3.80;;;;;;;;;;6219683;23;20038;-72
2022/10/26 14:21:07;;;;;;;14.48;4.07;;;;;;;;;;6246588;23;20047;-72
2022/10/26 14:23:44;;;;;;;8.43;4.07;;;;;;;;;;6219880;23;20016;-72
2022/10/26 14:26:18;;;;;;;9.02;3.67;;;;;;;;;;6220097;23;20023;-72
2022/10/26 14:28:49;;;;;;;7.43;3.95;;;17.70;99.90;;;;;;6220365;23;20070;-72
2022/10/26 14:31:28;;;;;;;10.85;4.07;;;;;;;;;;6220582;23;20012;-71
2022/10/26 14:33:55;;;;;;;11.40;3.80;;;;;;;;;;6220615;23;20023;-72
2022/10/26 14:36:24;;;;;;;10.18;4.10;;;;;;;;;;6219612;23;20323;-71
2022/10/26 14:38:54;;;;;;;12.32;3.90;;;;;;;;;;6246706;23;20047;-72
2022/10/26 14:41:20;;;;;;;11.25;4.22;;;;;;;;;;6219582;23;20016;-72